Time;durP1;ratioP1;P1;durP2;ratioP2;P2;SDS_P1;SDS_P2;PMS_P1;PMS_P2;Temp;Humidity;BMP_temperature;BMP_pressure;BME280_temperature;BME280_humidity;BME280_pressure;Samples;Min_cycle;Max_cycle;Signal;HPM_P1;HPM_P2
2024/03/28 00:00:44;;;;;;;9.48;3.75;;;;;;;;;;4972396;28;20122;-62
2024/03/28 00:03:09;;;;;;;9.68;4.43;;;;;;;;;;4969654;28;20106;-63
2024/03/28 00:05:35;;;;;;;10.48;4.15;;;;;;;;;;4969559;28;20093;-63
2024/03/28 00:08:00;;;;;;;8.68;4.50;;;;;;;;;;4969933;28;20364;-64
2024/03/28 00:10:25;;;;;;;7.20;3.90;;;;;;;;;;4976649;28;20050;-63
2024/03/28 00:12:50;;;;;;;9.27;3.90;;;;;;;;;;4969188;28;20034;-63
2024/03/28 00:15:15;;;;;;;8.57;3.83;;;;;;;;;;4967886;28;20401;-63
2024/03/28 00:17:40;;;;;;;9.32;3.60;;;;;;;;;;4969875;28;20023;-63
2024/03/28 00:20:06;;;;;;;9.77;3.13;;;;;;;;;;4975190;28;20036;-62
2024/03/28 00:22:31;;;;;;;7.80;3.13;;;;;;;;;;4956906;28;20509;-64
2024/03/28 00:24:56;;;;;;;7.22;2.90;;;;;;;;;;4961270;28;20064;-63
2024/03/28 00:27:21;;;;;;;7.10;3.80;;;;;;;;;;4984764;28;20035;-66
2024/03/28 00:29:47;;;;;;;6.80;3.45;;;;;;;;;;4988151;28;20084;-63
2024/03/28 00:32:12;;;;;;;8.30;3.13;;;;;;;;;;4984347;28;20019;-64
2024/03/28 00:34:37;;;;;;;8.07;2.90;;;;;;;;;;4961530;28;20077;-62
2024/03/28 00:37:02;;;;;;;12.13;4.10;;;;;;;;;;5020964;28;20027;-63
2024/03/28 00:39:27;;;;;;;6.85;3.63;;;;;;;;;;4981301;28;20031;-65
2024/03/28 00:41:52;;;;;;;11.18;3.40;;;;;;;;;;4978766;28;20019;-64
2024/03/28 00:44:17;;;;;;;9.63;3.30;;;;;;;;;;4978423;28;20030;-63
2024/03/28 00:46:44;;;;;;;7.78;2.95;;;;;;;;;;4979255;28;20058;-63
2024/03/28 00:49:09;;;;;;;8.50;3.17;;;;;;;;;;5030463;28;20029;-63
2024/03/28 00:51:34;;;;;;;9.63;2.90;;;;;;;;;;4980823;28;20022;-65
2024/03/28 00:53:59;;;;;;;8.70;3.40;;;;;;;;;;4954123;28;20100;-63
2024/03/28 00:56:24;;;;;;;6.97;2.80;;;;;;;;;;4963773;28;20105;-64
2024/03/28 00:58:49;;;;;;;9.52;3.00;;;;;;;;;;4977769;28;20045;-63
2024/03/28 01:01:15;;;;;;;9.43;2.92;;;;;;;;;;4982862;28;20486;-62
2024/03/28 01:03:40;;;;;;;7.77;2.60;;;;;;;;;;4959073;28;20059;-63
2024/03/28 01:06:05;;;;;;;8.18;2.92;;;;;;;;;;4972640;28;20035;-63
2024/03/28 01:08:30;;;;;;;10.53;2.90;;;;;;;;;;4973686;28;20030;-64
2024/03/28 01:10:55;;;;;;;6.87;2.70;;;;;;;;;;4972977;28;20019;-63
2024/03/28 01:13:21;;;;;;;7.80;2.50;;;;;;;;;;4972459;28;20076;-62
2024/03/28 01:15:46;;;;;;;8.13;3.40;;;;;;;;;;4971526;28;20023;-63
2024/03/28 01:18:11;;;;;;;7.97;3.87;;;;;;;;;;4973597;28;20037;-63
2024/03/28 01:20:36;;;;;;;8.63;3.90;;;;;;;;;;4982299;28;20041;-63
2024/03/28 01:23:02;;;;;;;10.23;3.70;;;;;;;;;;4958130;28;20020;-64
2024/03/28 01:25:27;;;;;;;8.10;3.45;;;;;;;;;;4953666;28;20106;-62
2024/03/28 01:27:52;;;;;;;7.32;3.45;;;;;;;;;;4959193;28;20378;-63
2024/03/28 01:30:17;;;;;;;8.73;4.03;;;;;;;;;;4981649;28;20070;-63
2024/03/28 01:32:42;;;;;;;7.67;3.43;;;;;;;;;;4975864;28;20035;-63
2024/03/28 01:35:07;;;;;;;10.13;3.77;;;;;;;;;;5016579;28;20028;-63
2024/03/28 01:37:33;;;;;;;9.20;4.00;;;;;;;;;;5019346;28;20027;-63
2024/03/28 01:39:59;;;;;;;8.55;3.72;;;;;;;;;;4977107;28;20078;-62
2024/03/28 01:42:24;;;;;;;;;;;;;;;;;;4984790;28;20076;-63
2024/03/28 01:44:49;;;;;;;9.30;3.70;;;;;;;;;;4962391;28;19910;-63
2024/03/28 01:47:16;;;;;;;10.07;4.05;;;;;;;;;;4953968;28;20019;-63
2024/03/28 01:49:41;;;;;;;9.98;3.83;;;;;;;;;;4979411;28;20030;-62
2024/03/28 01:52:07;;;;;;;11.63;4.07;;;;;;;;;;4979108;28;20034;-63
2024/03/28 01:54:34;;;;;;;7.57;3.42;;;;;;;;;;4952817;28;20968;-62
2024/03/28 01:57:00;;;;;;;7.35;4.15;;;;;;;;;;4977460;28;20030;-64
2024/03/28 01:59:25;;;;;;;8.18;3.67;;;;;;;;;;4952736;28;20027;-64
2024/03/28 02:01:51;;;;;;;8.97;4.30;;;;;;;;;;4961224;28;20027;-64
2024/03/28 02:04:16;;;;;;;9.33;4.23;;;;;;;;;;4964936;28;20532;-63
2024/03/28 02:06:41;;;;;;;7.80;3.60;;;;;;;;;;4969853;28;20066;-64
2024/03/28 02:09:07;;;;;;;8.82;3.88;;;;;;;;;;4987777;28;20520;-64
2024/03/28 02:11:33;;;;;;;8.95;3.85;;;;;;;;;;4980325;28;20023;-63
2024/03/28 02:13:58;;;;;;;9.05;4.15;;;;;;;;;;4978238;28;20026;-63
2024/03/28 02:16:23;;;;;;;8.95;4.28;;;;;;;;;;4976450;28;20015;-64
2024/03/28 02:18:48;;;;;;;9.33;4.23;;;;;;;;;;4975084;28;20027;-64
2024/03/28 02:21:14;;;;;;;9.77;4.18;;;;;;;;;;4977134;28;20019;-64
2024/03/28 02:23:39;;;;;;;7.53;3.95;;;;;;;;;;4971138;28;20042;-64
2024/03/28 02:26:04;;;;;;;11.00;4.90;;;;;;;;;;4981723;28;20363;-63
2024/03/28 02:28:35;;;;;;;11.20;5.00;;;;;;;;;;4978815;28;20031;-63
2024/03/28 02:31:01;;;;;;;8.43;4.63;;;;;;;;;;4987968;28;20026;-63
2024/03/28 02:33:26;;;;;;;10.63;4.80;;;;;;;;;;5020226;28;20012;-63
2024/03/28 02:35:51;;;;;;;10.17;4.80;;;;;;;;;;5073219;28;20139;-63
2024/03/28 02:38:16;;;;;;;8.00;4.55;;;;;;;;;;5002732;28;20101;-62
2024/03/28 02:40:41;;;;;;;7.88;4.50;;;;;;;;;;4984786;28;20030;-63
2024/03/28 02:43:06;;;;;;;8.55;4.05;;;;;;;;;;4990223;28;20087;-63
2024/03/28 02:45:31;;;;;;;10.13;4.82;;;;;;;;;;4990434;28;20367;-62
2024/03/28 02:47:56;;;;;;;7.63;3.88;;;;;;;;;;4984558;28;20038;-63
2024/03/28 02:50:22;;;;;;;10.40;4.40;;;;;;;;;;4976926;28;20071;-63
2024/03/28 02:52:47;;;;;;;8.73;4.22;;;;;;;;;;4976300;28;20399;-63
2024/03/28 02:55:12;;;;;;;6.80;3.45;;;;;;;;;;4979366;28;20023;-63
2024/03/28 02:57:37;;;;;;;6.65;3.30;;;;;;;;;;4989586;28;20033;-62
2024/03/28 03:00:03;;;;;;;5.47;3.00;;;;;;;;;;4989559;28;20457;-62
2024/03/28 03:02:28;;;;;;;5.75;3.17;;;;;;;;;;4978185;28;20027;-63
2024/03/28 03:04:53;;;;;;;7.10;3.47;;;;;;;;;;4984868;28;20030;-63
2024/03/28 03:07:18;;;;;;;6.93;2.72;;;;;;;;;;4989557;28;20090;-63
2024/03/28 03:09:43;;;;;;;4.80;2.40;;;;;;;;;;4989498;28;20505;-63
2024/03/28 03:12:09;;;;;;;3.23;1.13;;;;;;;;;;4980582;28;20022;-63
2024/03/28 03:14:34;;;;;;;4.93;0.80;;;;;;;;;;4982098;28;20025;-63
2024/03/28 03:16:59;;;;;;;2.57;0.80;;;;;;;;;;4988335;28;20033;-62
2024/03/28 03:19:24;;;;;;;3.00;0.60;;;;;;;;;;4989404;28;20034;-62
2024/03/28 03:21:51;;;;;;;1.27;0.60;;;;;;;;;;5010590;28;20482;-63
2024/03/28 03:24:17;;;;;;;1.55;0.60;;;;;;;;;;4981081;28;20030;-64
2024/03/28 03:26:52;;;;;;;1.50;0.53;;;;;;;;;;4958857;28;20426;-63
2024/03/28 03:34:45;;;;;;;1.50;0.80;;;;;;;;;;4965506;28;19972;-64
2024/03/28 03:37:18;;;;;;;1.85;0.75;;;;;;;;;;4969495;28;20048;-63
2024/03/28 03:39:43;;;;;;;0.60;0.40;;;;;;;;;;4973127;28;20056;-62
2024/03/28 03:42:08;;;;;;;0.22;0.10;;;;;;;;;;4971800;28;20022;-62
2024/03/28 03:44:34;;;;;;;0.60;0.27;;;;;;;;;;4967490;28;20027;-63
2024/03/28 03:46:59;;;;;;;0.13;0.10;;;;;;;;;;4969553;28;20023;-62
2024/03/28 03:49:24;;;;;;;0.03;0.00;;;;;;;;;;4975913;28;20023;-62
2024/03/28 03:51:49;;;;;;;0.93;0.05;;;;;;;;;;4985090;28;20027;-62
2024/03/28 03:54:14;;;;;;;0.20;0.10;;;;;;;;;;5017818;28;20028;-63
2024/03/28 03:56:40;;;;;;;0.25;0.10;;;;;;;;;;5070462;28;20067;-63
2024/03/28 03:59:06;;;;;;;0.47;0.10;;;;;;;;;;5019432;28;20046;-61
2024/03/28 04:01:32;;;;;;;0.30;0.10;;;;;;;;;;4978843;28;20393;-63
2024/03/28 04:03:57;;;;;;;0.20;0.10;;;;;;;;;;4987835;28;20026;-63
2024/03/28 04:06:22;;;;;;;0.35;0.00;;;;;;;;;;4991212;28;20023;-62
2024/03/28 04:08:47;;;;;;;0.38;0.10;;;;;;;;;;4987882;28;20038;-61
2024/03/28 04:11:13;;;;;;;0.20;0.10;;;;;;;;;;4980746;28;20026;-62
2024/03/28 04:13:38;;;;;;;0.50;0.10;;;;;;;;;;4995684;28;20034;-63
2024/03/28 04:16:03;;;;;;;0.30;0.10;;;;;;;;;;5069492;28;20069;-62
2024/03/28 04:18:28;;;;;;;0.57;0.17;;;;;;;;;;5048358;28;20386;-62
2024/03/28 04:20:54;;;;;;;0.00;0.00;;;;;;;;;;4977645;28;20030;-62
2024/03/28 04:23:19;;;;;;;0.70;0.20;;;;;;;;;;5026392;28;20571;-61
2024/03/28 04:25:51;;;;;;;2.28;0.10;;;;;;;;;;5070723;28;20111;-61
2024/03/28 04:28:16;;;;;;;1.63;0.25;;;;;;;;;;5056562;28;20056;-62
2024/03/28 04:30:42;;;;;;;0.47;0.10;;;;;;;;;;4990853;28;20066;-62
2024/03/28 04:33:07;;;;;;;1.60;0.00;;;;;;;;;;4971541;28;20438;-63
2024/03/28 04:35:32;;;;;;;0.30;0.10;;;;;;;;;;4968829;28;20498;-62
2024/03/28 04:37:58;;;;;;;1.23;0.20;;;;;;;;;;4969225;28;20501;-63
2024/03/28 04:40:23;;;;;;;1.20;0.20;;;;;;;;;;4967921;28;20072;-62
2024/03/28 04:42:52;;;;;;;0.47;0.10;;;;;;;;;;4973033;28;20027;-63
2024/03/28 04:45:20;;;;;;;0.63;0.15;;;;;;;;;;4967688;28;20395;-63
2024/03/28 04:47:47;;;;;;;0.63;0.10;;;;;;;;;;4970478;28;20062;-62
2024/03/28 04:50:12;;;;;;;0.40;0.10;;;;;;;;;;4969803;28;20027;-62
2024/03/28 04:52:37;;;;;;;0.10;0.10;;;;;;;;;;4975250;28;20092;-62
2024/03/28 04:55:02;;;;;;;1.83;0.43;;;;;;;;;;4969183;28;20505;-62
2024/03/28 04:57:27;;;;;;;0.67;0.20;;;;;;;;;;4969854;28;20042;-63
2024/03/28 04:59:53;;;;;;;0.57;0.33;;;;;;;;;;4981513;28;20466;-62
2024/03/28 05:02:18;;;;;;;0.98;0.30;;;;;;;;;;4990844;28;20030;-63
2024/03/28 05:04:43;;;;;;;0.52;0.20;;;;;;;;;;4969742;28;20491;-62
2024/03/28 05:07:08;;;;;;;0.73;0.30;;;;;;;;;;4969387;28;20103;-62
2024/03/28 05:09:33;;;;;;;0.73;0.20;;;;;;;;;;5017371;28;20044;-63
2024/03/28 05:11:58;;;;;;;1.35;0.30;;;;;;;;;;4999008;28;20031;-63
2024/03/28 05:14:23;;;;;;;1.42;0.30;;;;;;;;;;4974293;28;20043;-62
2024/03/28 05:16:49;;;;;;;0.53;0.20;;;;;;;;;;4977093;28;20037;-63
2024/03/28 05:19:14;;;;;;;0.60;0.30;;;;;;;;;;4976721;28;20031;-62
2024/03/28 05:21:39;;;;;;;0.75;0.40;;;;;;;;;;4979895;28;20022;-64
2024/03/28 05:24:05;;;;;;;0.73;0.35;;;;;;;;;;4973260;28;20076;-63
2024/03/28 05:26:30;;;;;;;0.73;0.30;;;;;;;;;;4993857;28;20041;-63
2024/03/28 05:28:55;;;;;;;0.40;0.28;;;;;;;;;;4994914;28;20016;-62
2024/03/28 05:31:20;;;;;;;0.63;0.30;;;;;;;;;;5032001;28;20028;-62
2024/03/28 05:33:45;;;;;;;1.45;0.30;;;;;;;;;;4969189;28;20035;-62
2024/03/28 05:36:11;;;;;;;2.92;0.40;;;;;;;;;;4958642;28;20035;-62
2024/03/28 05:38:36;;;;;;;1.40;0.38;;;;;;;;;;4976221;28;20135;-63
2024/03/28 05:41:01;;;;;;;0.88;0.40;;;;;;;;;;4973597;28;20047;-62
2024/03/28 05:43:26;;;;;;;0.93;0.40;;;;;;;;;;4976338;28;20049;-62
2024/03/28 05:45:52;;;;;;;0.82;0.30;;;;;;;;;;4977063;28;20109;-62
2024/03/28 05:48:17;;;;;;;0.70;0.22;;;;;;;;;;4981155;28;20049;-63
2024/03/28 05:50:42;;;;;;;1.20;0.40;;;;;;;;;;4982239;28;20031;-62
2024/03/28 05:53:07;;;;;;;0.38;0.20;;;;;;;;;;4979319;28;20023;-63
2024/03/28 05:55:33;;;;;;;0.70;0.30;;;;;;;;;;4979480;28;20049;-63
2024/03/28 05:57:58;;;;;;;0.63;0.30;;;;;;;;;;4984370;28;20035;-64
2024/03/28 06:00:23;;;;;;;1.10;0.30;;;;;;;;;;4970805;28;20448;-63
2024/03/28 06:02:48;;;;;;;1.60;0.40;;;;;;;;;;4974644;28;20076;-63
2024/03/28 06:05:14;;;;;;;1.17;0.30;;;;;;;;;;4969482;28;20027;-63
2024/03/28 06:07:39;;;;;;;1.30;0.40;;;;;;;;;;4981453;28;20026;-63
2024/03/28 06:10:04;;;;;;;0.98;0.30;;;;;;;;;;4971094;28;20482;-64
2024/03/28 06:12:29;;;;;;;1.38;0.30;;;;;;;;;;4968286;28;20013;-64
2024/03/28 06:14:55;;;;;;;1.35;0.30;;;;;;;;;;4964578;28;20093;-62
2024/03/28 06:17:20;;;;;;;1.38;0.30;;;;;;;;;;4968378;28;20045;-63
2024/03/28 06:19:45;;;;;;;0.40;0.20;;;;;;;;;;4963179;28;20559;-63
2024/03/28 06:22:10;;;;;;;0.98;0.30;;;;;;;;;;4957852;28;20023;-63
2024/03/28 06:24:35;;;;;;;1.77;0.60;;;;;;;;;;4967924;28;20039;-62
2024/03/28 06:27:00;;;;;;;0.95;0.30;;;;;;;;;;4968964;28;20163;-62
2024/03/28 06:29:26;;;;;;;1.60;0.25;;;;;;;;;;5004867;28;20047;-63
2024/03/28 06:31:52;;;;;;;0.25;0.20;;;;;;;;;;4958674;28;20023;-63
2024/03/28 06:34:17;;;;;;;1.08;0.30;;;;;;;;;;4977982;28;20034;-64
2024/03/28 06:36:42;;;;;;;0.67;0.40;;;;;;;;;;4960157;28;20467;-63
2024/03/28 06:39:08;;;;;;;1.50;0.30;;;;;;;;;;4967466;28;20709;-61
2024/03/28 06:41:34;;;;;;;0.90;0.40;;;;;;;;;;4955770;28;20430;-62
2024/03/28 06:43:59;;;;;;;2.30;0.50;;;;;;;;;;4961849;28;20026;-62
2024/03/28 06:46:24;;;;;;;1.08;0.38;;;;;;;;;;4964314;28;20114;-62
2024/03/28 06:48:49;;;;;;;2.05;0.40;;;;;;;;;;4975080;28;20035;-62
2024/03/28 06:51:14;;;;;;;1.27;0.40;;;;;;;;;;4979029;28;20023;-63
2024/03/28 06:53:39;;;;;;;0.73;0.27;;;;;;;;;;4968457;28;20089;-63
2024/03/28 06:56:05;;;;;;;1.42;0.40;;;;;;;;;;4968176;28;20081;-61
2024/03/28 06:58:30;;;;;;;1.50;0.50;;;;;;;;;;4968994;28;20039;-62
2024/03/28 07:00:58;;;;;;;1.30;0.40;;;;;;;;;;4968199;28;20038;-64
2024/03/28 07:03:24;;;;;;;0.75;0.35;;;;;;;;;;4962453;28;20101;-63
2024/03/28 07:05:49;;;;;;;1.23;0.40;;;;;;;;;;4974942;28;20023;-62
2024/03/28 07:08:14;;;;;;;2.57;0.30;;;;;;;;;;4975749;28;20195;-62
2024/03/28 07:10:39;;;;;;;1.48;0.40;;;;;;;;;;4972104;28;20079;-63
2024/03/28 07:13:05;;;;;;;2.15;0.50;;;;;;;;;;4961287;28;20487;-62
2024/03/28 07:15:30;;;;;;;1.98;0.60;;;;;;;;;;4965038;28;20065;-64
2024/03/28 07:17:55;;;;;;;2.30;0.55;;;;;;;;;;4959902;28;20479;-63
2024/03/28 07:20:20;;;;;;;1.50;0.40;;;;;;;;;;4993920;28;20038;-63
2024/03/28 07:22:47;;;;;;;2.70;0.40;;;;;;;;;;4994324;28;20054;-64
2024/03/28 07:25:12;;;;;;;1.00;0.40;;;;;;;;;;4968574;28;20470;-63
2024/03/28 07:27:37;;;;;;;1.38;0.57;;;;;;;;;;4964544;28;20034;-63
2024/03/28 07:30:03;;;;;;;1.45;0.45;;;;;;;;;;4963812;28;20157;-63
2024/03/28 07:32:28;;;;;;;3.37;0.60;;;;;;;;;;4955019;28;20019;-63
2024/03/28 07:34:53;;;;;;;1.52;0.52;;;;;;;;;;4964476;28;20451;-64
2024/03/28 07:37:18;;;;;;;1.57;0.60;;;;;;;;;;4971817;28;20015;-69
2024/03/28 07:39:44;;;;;;;1.58;0.60;;;;;;;;;;4969154;28;20031;-64
2024/03/28 07:42:09;;;;;;;2.65;0.70;;;;;;;;;;4970741;28;20072;-62
2024/03/28 07:44:34;;;;;;;2.13;0.70;;;;;;;;;;4984044;28;20030;-63
2024/03/28 07:46:59;;;;;;;3.05;1.00;;;;;;;;;;4975302;28;20034;-64
2024/03/28 07:49:24;;;;;;;3.40;0.90;;;;;;;;;;4992718;28;20025;-62
2024/03/28 07:51:49;;;;;;;2.95;1.10;;;;;;;;;;4965607;28;20023;-63
2024/03/28 07:54:17;;;;;;;2.30;0.80;;;;;;;;;;4967614;28;20115;-63
2024/03/28 07:56:42;;;;;;;2.05;0.90;;;;;;;;;;4976391;28;20339;-62
2024/03/28 07:59:07;;;;;;;3.03;0.90;;;;;;;;;;4972559;28;20054;-63
2024/03/28 08:01:32;;;;;;;3.22;1.10;;;;;;;;;;4976526;28;20038;-63
2024/03/28 08:03:57;;;;;;;3.90;1.30;;;;;;;;;;4979629;28;20113;-63
2024/03/28 08:06:23;;;;;;;3.92;1.02;;;;;;;;;;4982540;28;20105;-62
2024/03/28 08:08:49;;;;;;;3.88;1.10;;;;;;;;;;4997137;28;20031;-63
2024/03/28 08:11:14;;;;;;;3.67;1.17;;;;;;;;;;4980695;28;20019;-62
2024/03/28 08:13:39;;;;;;;2.90;1.00;;;;;;;;;;4982024;28;20450;-63
2024/03/28 08:16:05;;;;;;;3.38;1.10;;;;;;;;;;4980342;28;20030;-62
2024/03/28 08:18:31;;;;;;;2.70;1.00;;;;;;;;;;4988925;28;20034;-62
2024/03/28 08:20:57;;;;;;;2.58;1.00;;;;;;;;;;4988665;28;20394;-62
2024/03/28 08:23:22;;;;;;;4.75;1.08;;;;;;;;;;4989545;28;20025;-63
2024/03/28 08:25:47;;;;;;;3.45;0.90;;;;;;;;;;5036499;28;20024;-63
2024/03/28 08:28:14;;;;;;;2.72;1.00;;;;;;;;;;5026103;28;20023;-63
2024/03/28 08:30:39;;;;;;;6.00;1.23;;;;;;;;;;4980407;28;20064;-62
2024/03/28 08:33:05;;;;;;;3.33;1.10;;;;;;;;;;4988270;28;20023;-63
2024/03/28 08:35:39;;;;;;;3.55;1.23;;;;;;;;;;4988148;28;20065;-63
2024/03/28 08:38:04;;;;;;;4.57;1.00;;;;;;;;;;4989457;28;20536;-64
2024/03/28 08:40:29;;;;;;;2.30;0.90;;;;;;;;;;4988374;28;20034;-64
2024/03/28 08:42:55;;;;;;;2.90;1.00;;;;;;;;;;4988120;28;20023;-62
2024/03/28 08:45:21;;;;;;;2.65;0.95;;;;;;;;;;4977826;28;20038;-63
2024/03/28 08:47:46;;;;;;;2.37;0.90;;;;;;;;;;4982451;28;20058;-63
2024/03/28 08:50:14;;;;;;;3.20;1.00;;;;;;;;;;4992000;28;20022;-62
2024/03/28 08:52:39;;;;;;;3.40;0.93;;;;;;;;;;4991481;28;20023;-64
2024/03/28 08:55:04;;;;;;;4.10;1.20;;;;;;;;;;4991452;28;20457;-65
2024/03/28 08:57:29;;;;;;;2.63;1.00;;;;;;;;;;4992156;28;20022;-63
2024/03/28 08:59:55;;;;;;;3.20;1.02;;;;;;;;;;4984009;28;20034;-63
2024/03/28 09:02:21;;;;;;;2.67;0.90;;;;;;;;;;4985208;28;20063;-65
2024/03/28 09:04:46;;;;;;;2.30;0.75;;;;;;;;;;4996295;28;20033;-63
2024/03/28 09:07:14;;;;;;;2.60;0.80;;;;;;;;;;4995846;28;20022;-64
2024/03/28 09:09:39;;;;;;;3.35;0.80;;;;;;;;;;4997476;28;20019;-63
2024/03/28 09:12:04;;;;;;;5.32;0.90;;;;;;;;;;4994467;28;20022;-64
2024/03/28 09:14:30;;;;;;;1.57;0.70;;;;;;;;;;4991850;28;20483;-63
2024/03/28 09:16:55;;;;;;;1.70;0.57;;;;;;;;;;4984480;28;20078;-63
2024/03/28 09:19:21;;;;;;;2.23;0.73;;;;;;;;;;4975742;28;20074;-64
2024/03/28 09:21:46;;;;;;;2.42;0.80;;;;;;;;;;4991745;28;20030;-64
2024/03/28 09:24:11;;;;;;;2.10;0.80;;;;;;;;;;5028082;28;20027;-64
2024/03/28 09:26:37;;;;;;;1.93;0.70;;;;;;;;;;5073650;28;20536;-63
2024/03/28 09:29:03;;;;;;;2.33;0.80;;;;;;;;;;5058815;28;20024;-65
2024/03/28 09:31:28;;;;;;;2.05;0.70;;;;;;;;;;4964226;28;20022;-64
2024/03/28 09:33:53;;;;;;;2.07;0.70;;;;;;;;;;4979640;28;20563;-63
2024/03/28 09:36:18;;;;;;;3.13;0.80;;;;;;;;;;4969023;28;20101;-64
2024/03/28 09:38:53;;;;;;;4.90;0.73;;;;;;;;;;4970218;28;20038;-63
2024/03/28 09:41:28;;;;;;;2.20;0.60;;;;;;;;;;4971726;28;20496;-63
2024/03/28 09:43:59;;;;;;;2.15;0.60;;;;;;;;;;4972662;28;20023;-62
2024/03/28 09:46:25;;;;;;;2.78;0.70;;;;;;;;;;4973255;28;20129;-62
2024/03/28 09:48:51;;;;;;;2.28;0.60;;;;;;;;;;4982885;28;20010;-64
2024/03/28 09:51:16;;;;;;;2.00;0.70;;;;;;;;;;4991033;28;20030;-64
2024/03/28 09:53:41;;;;;;;2.72;0.73;;;;;;;;;;4976214;28;20031;-64
2024/03/28 09:56:07;;;;;;;2.97;0.70;;;;;;;;;;4952036;28;20076;-64
2024/03/28 09:58:32;;;;;;;2.67;0.60;;;;;;;;;;4951810;28;20023;-64
2024/03/28 10:00:58;;;;;;;3.33;0.60;;;;;;;;;;4951669;28;20488;-63
2024/03/28 10:03:33;;;;;;;1.52;0.52;;;;;;;;;;4961082;28;20057;-63
2024/03/28 10:05:58;;;;;;;1.23;0.50;;;;;;;;;;4982879;28;20025;-63
2024/03/28 10:08:25;;;;;;;4.65;0.55;;;;;;;;;;4997041;28;20031;-63
2024/03/28 10:10:52;;;;;;;1.23;0.55;;;;;;;;;;4971237;28;20386;-63
2024/03/28 10:13:18;;;;;;;1.83;0.60;;;;;;;;;;4970237;28;20019;-64
2024/03/28 10:15:52;;;;;;;1.75;0.50;;;;;;;;;;4974930;28;20022;-63
2024/03/28 10:18:17;;;;;;;1.55;0.50;;;;;;;;;;4983392;28;20018;-63
2024/03/28 10:20:52;;;;;;;2.20;0.60;;;;;;;;;;4976690;28;20173;-64
2024/03/28 10:23:18;;;;;;;1.75;0.50;;;;;;;;;;5037570;28;20503;-62
2024/03/28 10:25:43;;;;;;;2.55;0.55;;;;;;;;;;5049739;28;20019;-62
2024/03/28 10:28:09;;;;;;;2.57;0.60;;;;;;;;;;4971890;28;20019;-63
2024/03/28 10:30:35;;;;;;;1.00;0.47;;;;;;;;;;4974655;28;20061;-65
2024/03/28 10:33:04;;;;;;;1.10;0.43;;;;;;;;;;4982800;28;20018;-62
2024/03/28 10:35:30;;;;;;;1.30;0.50;;;;;;;;;;4991084;28;20033;-63
2024/03/28 10:37:59;;;;;;;2.25;0.57;;;;;;;;;;4967186;28;20069;-62
2024/03/28 10:40:25;;;;;;;1.02;0.40;;;;;;;;;;4971410;28;20088;-62
2024/03/28 10:42:51;;;;;;;0.90;0.52;;;;;;;;;;4973047;28;20019;-62
2024/03/28 10:45:16;;;;;;;1.08;0.50;;;;;;;;;;4974089;28;20509;-64
2024/03/28 10:47:42;;;;;;;0.70;0.30;;;;;;;;;;4980814;28;20156;-64
2024/03/28 10:50:17;;;;;;;2.17;0.40;;;;;;;;;;4986042;28;20030;-63
2024/03/28 10:52:48;;;;;;;1.45;0.40;;;;;;;;;;4984905;28;20031;-62
2024/03/28 10:55:15;;;;;;;1.30;0.50;;;;;;;;;;4969339;28;20023;-63
2024/03/28 10:57:41;;;;;;;2.58;0.40;;;;;;;;;;4970339;28;20027;-64
2024/03/28 11:00:09;;;;;;;0.82;0.30;;;;;;;;;;4969000;28;20034;-63
2024/03/28 11:02:34;;;;;;;3.17;0.70;;;;;;;;;;4970509;28;20567;-63
2024/03/28 11:05:00;;;;;;;1.50;0.40;;;;;;;;;;4977825;28;20074;-64
2024/03/28 11:07:26;;;;;;;1.67;0.50;;;;;;;;;;4983236;28;20022;-62
2024/03/28 11:09:53;;;;;;;1.55;0.40;;;;;;;;;;4989913;28;20022;-63
2024/03/28 11:12:20;;;;;;;2.58;0.35;;;;;;;;;;4993721;28;20065;-62
2024/03/28 11:14:55;;;;;;;2.25;0.50;;;;;;;;;;4992786;28;20108;-64
2024/03/28 11:17:20;;;;;;;1.40;0.35;;;;;;;;;;4989485;28;20030;-64
2024/03/28 11:19:46;;;;;;;2.17;0.30;;;;;;;;;;4989616;28;20030;-64
2024/03/28 11:22:11;;;;;;;0.80;0.38;;;;;;;;;;4975807;28;20816;-64
2024/03/28 11:24:37;;;;;;;0.80;0.30;;;;;;;;;;4977676;28;20097;-63
2024/03/28 11:27:03;;;;;;;1.63;0.30;;;;;;;;;;4984679;28;20030;-64
2024/03/28 11:29:28;;;;;;;1.88;0.40;;;;;;;;;;4990674;28;20042;-63
2024/03/28 11:31:54;;;;;;;1.37;0.20;;;;;;;;;;4988448;28;20027;-63
2024/03/28 11:34:24;;;;;;;1.73;0.40;;;;;;;;;;4989682;28;20025;-62
2024/03/28 11:36:51;;;;;;;1.42;0.30;;;;;;;;;;4989704;28;20031;-64
2024/03/28 11:39:17;;;;;;;3.03;0.77;;;;;;;;;;4966419;28;20042;-62
2024/03/28 11:41:42;;;;;;;2.65;0.50;;;;;;;;;;4976722;28;20022;-62
2024/03/28 11:44:07;;;;;;;2.50;0.40;;;;;;;;;;4969542;28;20031;-63
2024/03/28 11:46:32;;;;;;;1.75;0.50;;;;;;;;;;4969596;28;20080;-64
2024/03/28 11:48:59;;;;;;;1.33;0.40;;;;;;;;;;4969763;28;20027;-64
2024/03/28 11:51:24;;;;;;;1.75;0.40;;;;;;;;;;4966940;28;20045;-62
2024/03/28 11:53:49;;;;;;;1.60;0.50;;;;;;;;;;4977398;28;20406;-63
2024/03/28 11:56:18;;;;;;;1.98;0.40;;;;;;;;;;4969318;28;20035;-62
2024/03/28 11:58:43;;;;;;;1.10;0.40;;;;;;;;;;4969420;28;20026;-64
2024/03/28 12:01:09;;;;;;;1.77;0.63;;;;;;;;;;4969423;28;20035;-63
2024/03/28 12:03:35;;;;;;;0.88;0.38;;;;;;;;;;4969574;28;20511;-64
2024/03/28 12:06:01;;;;;;;1.38;0.40;;;;;;;;;;5038582;28;20023;-63
2024/03/28 12:08:27;;;;;;;0.85;0.30;;;;;;;;;;4980268;28;20033;-62
2024/03/28 12:10:59;;;;;;;2.10;0.40;;;;;;;;;;4978037;28;20096;-63
2024/03/28 12:13:24;;;;;;;1.70;0.40;;;;;;;;;;4987548;28;20027;-64
2024/03/28 12:15:56;;;;;;;2.00;0.30;;;;;;;;;;4988730;28;20108;-65
2024/03/28 12:18:21;;;;;;;1.15;0.20;;;;;;;;;;4988758;28;20604;-63
2024/03/28 12:20:47;;;;;;;1.17;0.40;;;;;;;;;;5046577;28;20041;-63
2024/03/28 12:23:13;;;;;;;1.30;0.40;;;;;;;;;;4992520;28;20556;-63
2024/03/28 12:25:44;;;;;;;2.13;0.40;;;;;;;;;;4986513;28;20662;-63
2024/03/28 12:28:15;;;;;;;2.08;0.50;;;;;;;;;;4995647;28;20022;-63
2024/03/28 12:30:47;;;;;;;0.70;0.30;;;;;;;;;;4995845;28;20126;-64
2024/03/28 12:33:12;;;;;;;1.60;0.30;;;;;;;;;;4980990;28;20041;-64
2024/03/28 12:35:38;;;;;;;0.77;0.30;;;;;;;;;;4978111;28;20031;-64
2024/03/28 12:38:03;;;;;;;2.67;0.40;;;;;;;;;;4978376;28;20538;-63
2024/03/28 12:40:28;;;;;;;1.00;0.40;;;;;;;;;;4981026;28;20084;-64
2024/03/28 12:42:54;;;;;;;3.97;0.70;;;;;;;;;;4990167;28;20022;-63
2024/03/28 12:45:25;;;;;;;2.25;0.57;;;;;;;;;;4998590;28;20019;-64
2024/03/28 12:47:51;;;;;;;2.05;0.40;;;;;;;;;;4995447;28;20018;-64
2024/03/28 12:50:17;;;;;;;1.80;0.35;;;;;;;;;;4978814;28;20038;-64
2024/03/28 12:52:46;;;;;;;2.00;0.47;;;;;;;;;;4980800;28;20038;-63
2024/03/28 12:55:11;;;;;;;1.65;0.50;;;;;;;;;;4975941;28;20022;-63
2024/03/28 12:57:37;;;;;;;1.42;0.40;;;;;;;;;;4984261;28;20156;-63
2024/03/28 13:00:02;;;;;;;2.63;0.40;;;;;;;;;;4980916;28;20108;-62
2024/03/28 13:02:28;;;;;;;2.53;0.43;;;;;;;;;;4966207;28;20085;-63
2024/03/28 13:04:53;;;;;;;1.40;0.40;;;;;;;;;;4976513;28;20030;-64
2024/03/28 13:07:18;;;;;;;1.52;0.40;;;;;;;;;;4991344;28;20581;-65
2024/03/28 13:09:43;;;;;;;2.92;0.60;;;;;;;;;;4994264;28;20045;-64
2024/03/28 13:12:08;;;;;;;2.53;0.60;;;;;;;;;;4995024;28;20030;-63
2024/03/28 13:14:33;;;;;;;1.40;0.50;;;;;;;;;;5020048;28;20138;-62
2024/03/28 13:16:59;;;;;;;1.98;0.45;;;;;;;;;;5077746;28;20016;-64
2024/03/28 13:19:24;;;;;;;1.57;0.50;;;;;;;;;;5077077;28;20039;-64
2024/03/28 13:21:51;;;;;;;1.83;0.40;;;;;;;;;;4981537;28;20052;-64
2024/03/28 13:24:16;;;;;;;0.88;0.30;;;;;;;;;;5005856;28;20472;-64
2024/03/28 13:26:43;;;;;;;2.20;0.50;;;;;;;;;;5073603;28;20025;-63
2024/03/28 13:29:08;;;;;;;2.15;0.50;;;;;;;;;;5055196;28;20095;-65
2024/03/28 13:31:35;;;;;;;2.23;0.50;;;;;;;;;;5000122;28;20396;-65
2024/03/28 13:34:01;;;;;;;2.17;0.40;;;;;;;;;;4996720;28;20034;-63
2024/03/28 13:36:27;;;;;;;1.58;0.40;;;;;;;;;;4999036;28;20025;-64
2024/03/28 13:38:53;;;;;;;1.00;0.40;;;;;;;;;;5007221;28;20022;-64
2024/03/28 13:41:18;;;;;;;1.35;0.35;;;;;;;;;;4991090;28;20030;-64
2024/03/28 13:43:43;;;;;;;2.40;0.40;;;;;;;;;;4961240;28;20049;-63
2024/03/28 13:46:09;;;;;;;1.48;0.47;;;;;;;;;;4962028;28;20033;-63
2024/03/28 13:48:36;;;;;;;0.73;0.25;;;;;;;;;;4974640;28;20031;-63
2024/03/28 13:51:01;;;;;;;2.60;0.60;;;;;;;;;;4981295;28;20041;-62
2024/03/28 13:53:29;;;;;;;2.07;0.43;;;;;;;;;;4988900;28;20026;-64
2024/03/28 13:55:54;;;;;;;2.85;0.50;;;;;;;;;;4977744;28;20043;-64
2024/03/28 13:58:19;;;;;;;1.05;0.40;;;;;;;;;;4971677;28;20030;-64
2024/03/28 14:00:45;;;;;;;1.52;0.43;;;;;;;;;;4975192;28;20459;-63
2024/03/28 14:03:10;;;;;;;2.03;0.50;;;;;;;;;;4984751;28;20134;-65
2024/03/28 14:05:35;;;;;;;2.58;0.47;;;;;;;;;;4974117;28;20455;-63
2024/03/28 14:08:00;;;;;;;3.03;0.55;;;;;;;;;;4974298;28;20529;-62
2024/03/28 14:10:25;;;;;;;1.60;0.38;;;;;;;;;;4973416;28;20049;-64
2024/03/28 14:12:50;;;;;;;2.40;0.50;;;;;;;;;;4995514;28;20038;-63
2024/03/28 14:15:15;;;;;;;1.80;0.50;;;;;;;;;;4972390;28;20074;-64
2024/03/28 14:17:41;;;;;;;1.60;0.40;;;;;;;;;;4975418;28;20083;-62
2024/03/28 14:20:06;;;;;;;2.08;0.50;;;;;;;;;;4984775;28;20409;-64
2024/03/28 14:22:31;;;;;;;3.10;0.60;;;;;;;;;;4987527;28;20023;-64
2024/03/28 14:24:56;;;;;;;2.10;0.52;;;;;;;;;;4992310;28;20695;-63
2024/03/28 14:27:21;;;;;;;1.70;0.40;;;;;;;;;;4968695;28;20483;-63
2024/03/28 14:29:46;;;;;;;1.45;0.40;;;;;;;;;;4979903;28;20069;-63
2024/03/28 14:32:12;;;;;;;4.18;0.70;;;;;;;;;;4971088;28;20030;-63
2024/03/28 14:34:37;;;;;;;2.97;0.47;;;;;;;;;;4971226;28;20513;-63
2024/03/28 14:37:02;;;;;;;1.38;0.47;;;;;;;;;;4970493;28;20018;-62
2024/03/28 14:39:27;;;;;;;1.37;0.40;;;;;;;;;;4969965;28;20035;-63